sensor_id;sensor_type;location;lat;lon;timestamp;P1;durP1;ratioP1;P2;durP2;ratioP2
53145;SDS011;39042;53.150;5.898;2023-07-31T00:01:32;5.68;;;0.98;;
53145;SDS011;39042;53.150;5.898;2023-07-31T00:03:58;4.68;;;1.33;;
53145;SDS011;39042;53.150;5.898;2023-07-31T00:06:24;4.45;;;1.15;;
53145;SDS011;39042;53.150;5.898;2023-07-31T00:08:50;7.17;;;1.57;;
53145;SDS011;39042;53.150;5.898;2023-07-31T00:11:16;15.32;;;2.85;;
53145;SDS011;39042;53.150;5.898;2023-07-31T00:13:42;5.43;;;2.30;;
53145;SDS011;39042;53.150;5.898;2023-07-31T00:16:07;6.47;;;2.55;;
53145;SDS011;39042;53.150;5.898;2023-07-31T00:18:33;11.60;;;3.28;;
53145;SDS011;39042;53.150;5.898;2023-07-31T00:20:59;10.10;;;3.40;;
53145;SDS011;39042;53.150;5.898;2023-07-31T00:23:25;12.07;;;3.23;;
53145;SDS011;39042;53.150;5.898;2023-07-31T00:25:51;8.32;;;3.15;;
53145;SDS011;39042;53.150;5.898;2023-07-31T00:28:16;10.80;;;3.10;;
53145;SDS011;39042;53.150;5.898;2023-07-31T00:30:42;10.05;;;3.20;;
53145;SDS011;39042;53.150;5.898;2023-07-31T00:33:08;8.45;;;3.10;;
53145;SDS011;39042;53.150;5.898;2023-07-31T00:35:36;10.82;;;3.17;;
53145;SDS011;39042;53.150;5.898;2023-07-31T00:38:02;8.55;;;2.63;;
53145;SDS011;39042;53.150;5.898;2023-07-31T00:40:28;8.53;;;2.60;;
53145;SDS011;39042;53.150;5.898;2023-07-31T00:42:53;8.48;;;2.60;;
53145;SDS011;39042;53.150;5.898;2023-07-31T00:45:19;6.05;;;2.58;;
53145;SDS011;39042;53.150;5.898;2023-07-31T00:47:48;6.40;;;2.90;;
53145;SDS011;39042;53.150;5.898;2023-07-31T00:50:14;8.65;;;2.58;;
53145;SDS011;39042;53.150;5.898;2023-07-31T00:52:40;8.52;;;2.15;;
53145;SDS011;39042;53.150;5.898;2023-07-31T00:55:06;9.70;;;2.30;;
53145;SDS011;39042;53.150;5.898;2023-07-31T00:57:32;10.45;;;2.25;;
53145;SDS011;39042;53.150;5.898;2023-07-31T01:00:00;7.30;;;2.35;;
53145;SDS011;39042;53.150;5.898;2023-07-31T01:02:25;10.77;;;2.00;;
53145;SDS011;39042;53.150;5.898;2023-07-31T01:04:51;8.05;;;2.25;;
53145;SDS011;39042;53.150;5.898;2023-07-31T01:07:20;7.88;;;2.17;;
53145;SDS011;39042;53.150;5.898;2023-07-31T01:10:02;6.93;;;2.10;;
53145;SDS011;39042;53.150;5.898;2023-07-31T01:12:35;7.22;;;1.48;;
53145;SDS011;39042;53.150;5.898;2023-07-31T01:15:07;7.30;;;1.50;;
53145;SDS011;39042;53.150;5.898;2023-07-31T01:17:38;7.15;;;1.20;;
53145;SDS011;39042;53.150;5.898;2023-07-31T01:20:05;5.57;;;1.27;;
53145;SDS011;39042;53.150;5.898;2023-07-31T01:28:18;6.53;;;1.15;;
53145;SDS011;39042;53.150;5.898;2023-07-31T01:33:14;7.32;;;1.70;;
53145;SDS011;39042;53.150;5.898;2023-07-31T01:35:42;8.18;;;0.80;;
53145;SDS011;39042;53.150;5.898;2023-07-31T01:38:09;7.00;;;1.13;;
53145;SDS011;39042;53.150;5.898;2023-07-31T01:40:36;6.35;;;1.00;;
53145;SDS011;39042;53.150;5.898;2023-07-31T01:43:02;8.23;;;1.15;;
53145;SDS011;39042;53.150;5.898;2023-07-31T01:45:28;7.63;;;1.15;;
53145;SDS011;39042;53.150;5.898;2023-07-31T01:47:54;3.63;;;0.80;;
53145;SDS011;39042;53.150;5.898;2023-07-31T01:50:19;4.40;;;1.03;;
53145;SDS011;39042;53.150;5.898;2023-07-31T01:52:45;5.35;;;1.17;;
53145;SDS011;39042;53.150;5.898;2023-07-31T01:55:11;7.15;;;1.15;;
53145;SDS011;39042;53.150;5.898;2023-07-31T01:57:37;5.97;;;0.90;;
53145;SDS011;39042;53.150;5.898;2023-07-31T02:00:03;9.32;;;2.15;;
53145;SDS011;39042;53.150;5.898;2023-07-31T02:02:37;4.05;;;0.85;;
53145;SDS011;39042;53.150;5.898;2023-07-31T02:05:03;6.50;;;1.40;;
53145;SDS011;39042;53.150;5.898;2023-07-31T02:07:29;4.82;;;1.67;;
53145;SDS011;39042;53.150;5.898;2023-07-31T02:09:55;7.45;;;1.13;;
53145;SDS011;39042;53.150;5.898;2023-07-31T02:12:21;6.40;;;1.52;;
53145;SDS011;39042;53.150;5.898;2023-07-31T02:14:47;5.47;;;1.50;;
53145;SDS011;39042;53.150;5.898;2023-07-31T02:17:12;6.35;;;1.48;;
53145;SDS011;39042;53.150;5.898;2023-07-31T02:19:38;5.68;;;1.52;;
53145;SDS011;39042;53.150;5.898;2023-07-31T02:22:04;6.20;;;1.33;;
53145;SDS011;39042;53.150;5.898;2023-07-31T02:24:30;9.48;;;1.77;;
53145;SDS011;39042;53.150;5.898;2023-07-31T02:26:57;10.77;;;1.30;;
53145;SDS011;39042;53.150;5.898;2023-07-31T02:29:23;7.70;;;1.83;;
53145;SDS011;39042;53.150;5.898;2023-07-31T02:31:49;4.53;;;1.38;;
53145;SDS011;39042;53.150;5.898;2023-07-31T02:34:15;6.68;;;1.30;;
53145;SDS011;39042;53.150;5.898;2023-07-31T02:36:41;5.13;;;1.55;;
53145;SDS011;39042;53.150;5.898;2023-07-31T02:39:07;6.60;;;1.52;;
53145;SDS011;39042;53.150;5.898;2023-07-31T02:41:32;7.50;;;1.98;;
53145;SDS011;39042;53.150;5.898;2023-07-31T02:43:58;6.65;;;1.88;;
53145;SDS011;39042;53.150;5.898;2023-07-31T02:46:26;5.05;;;2.00;;
53145;SDS011;39042;53.150;5.898;2023-07-31T02:48:51;6.60;;;1.55;;
53145;SDS011;39042;53.150;5.898;2023-07-31T02:51:17;7.55;;;1.45;;
53145;SDS011;39042;53.150;5.898;2023-07-31T02:53:43;5.88;;;1.40;;
53145;SDS011;39042;53.150;5.898;2023-07-31T02:56:09;4.35;;;1.45;;
53145;SDS011;39042;53.150;5.898;2023-07-31T02:58:35;4.07;;;1.27;;
53145;SDS011;39042;53.150;5.898;2023-07-31T03:01:01;7.68;;;1.50;;
53145;SDS011;39042;53.150;5.898;2023-07-31T03:03:27;5.97;;;1.67;;
53145;SDS011;39042;53.150;5.898;2023-07-31T03:05:53;6.38;;;1.63;;
53145;SDS011;39042;53.150;5.898;2023-07-31T03:08:18;3.55;;;1.42;;
53145;SDS011;39042;53.150;5.898;2023-07-31T03:10:44;4.90;;;1.33;;
53145;SDS011;39042;53.150;5.898;2023-07-31T03:13:10;3.70;;;1.20;;
53145;SDS011;39042;53.150;5.898;2023-07-31T03:15:36;1.77;;;0.70;;
53145;SDS011;39042;53.150;5.898;2023-07-31T03:18:02;1.95;;;0.60;;
53145;SDS011;39042;53.150;5.898;2023-07-31T03:20:28;2.25;;;0.65;;
53145;SDS011;39042;53.150;5.898;2023-07-31T03:22:54;3.03;;;0.60;;
53145;SDS011;39042;53.150;5.898;2023-07-31T03:25:19;1.65;;;0.60;;
53145;SDS011;39042;53.150;5.898;2023-07-31T03:27:45;2.70;;;0.50;;
53145;SDS011;39042;53.150;5.898;2023-07-31T03:30:11;1.08;;;0.63;;
53145;SDS011;39042;53.150;5.898;2023-07-31T03:32:37;2.42;;;0.63;;
53145;SDS011;39042;53.150;5.898;2023-07-31T03:35:03;1.27;;;0.40;;
53145;SDS011;39042;53.150;5.898;2023-07-31T03:37:30;1.83;;;0.60;;
53145;SDS011;39042;53.150;5.898;2023-07-31T03:39:56;1.33;;;0.40;;
53145;SDS011;39042;53.150;5.898;2023-07-31T03:42:22;2.78;;;0.68;;
53145;SDS011;39042;53.150;5.898;2023-07-31T03:44:49;1.80;;;0.70;;
53145;SDS011;39042;53.150;5.898;2023-07-31T03:47:16;2.45;;;0.75;;
53145;SDS011;39042;53.150;5.898;2023-07-31T03:49:42;1.80;;;0.70;;
53145;SDS011;39042;53.150;5.898;2023-07-31T03:52:07;2.47;;;1.00;;
53145;SDS011;39042;53.150;5.898;2023-07-31T03:54:33;1.05;;;0.40;;
53145;SDS011;39042;53.150;5.898;2023-07-31T03:56:59;2.05;;;0.82;;
53145;SDS011;39042;53.150;5.898;2023-07-31T03:59:25;2.72;;;0.70;;
53145;SDS011;39042;53.150;5.898;2023-07-31T04:01:51;0.90;;;0.50;;
53145;SDS011;39042;53.150;5.898;2023-07-31T04:04:16;1.90;;;0.50;;
53145;SDS011;39042;53.150;5.898;2023-07-31T04:06:42;3.55;;;0.40;;
53145;SDS011;39042;53.150;5.898;2023-07-31T04:09:08;1.90;;;0.50;;
53145;SDS011;39042;53.150;5.898;2023-07-31T04:11:34;2.88;;;0.60;;
53145;SDS011;39042;53.150;5.898;2023-07-31T04:14:00;1.08;;;0.47;;
53145;SDS011;39042;53.150;5.898;2023-07-31T04:16:26;2.65;;;0.50;;
53145;SDS011;39042;53.150;5.898;2023-07-31T04:18:51;3.22;;;0.50;;
53145;SDS011;39042;53.150;5.898;2023-07-31T04:21:17;2.10;;;0.50;;
53145;SDS011;39042;53.150;5.898;2023-07-31T04:23:43;2.40;;;0.90;;
53145;SDS011;39042;53.150;5.898;2023-07-31T04:26:09;5.10;;;1.33;;
53145;SDS011;39042;53.150;5.898;2023-07-31T04:28:35;7.97;;;1.80;;
53145;SDS011;39042;53.150;5.898;2023-07-31T04:31:01;6.38;;;2.00;;
53145;SDS011;39042;53.150;5.898;2023-07-31T04:33:26;9.45;;;2.58;;
53145;SDS011;39042;53.150;5.898;2023-07-31T04:35:52;16.70;;;2.77;;
53145;SDS011;39042;53.150;5.898;2023-07-31T04:40:45;14.25;;;3.70;;
53145;SDS011;39042;53.150;5.898;2023-07-31T04:43:12;19.80;;;4.30;;
53145;SDS011;39042;53.150;5.898;2023-07-31T04:45:38;15.75;;;4.03;;
53145;SDS011;39042;53.150;5.898;2023-07-31T04:48:04;11.68;;;3.95;;
53145;SDS011;39042;53.150;5.898;2023-07-31T04:50:30;16.08;;;3.83;;
53145;SDS011;39042;53.150;5.898;2023-07-31T04:52:56;13.60;;;3.95;;
53145;SDS011;39042;53.150;5.898;2023-07-31T04:55:22;17.83;;;4.25;;
53145;SDS011;39042;53.150;5.898;2023-07-31T04:57:48;16.95;;;3.38;;
53145;SDS011;39042;53.150;5.898;2023-07-31T05:00:13;17.30;;;3.73;;
53145;SDS011;39042;53.150;5.898;2023-07-31T05:02:39;10.00;;;3.22;;
53145;SDS011;39042;53.150;5.898;2023-07-31T05:05:05;12.40;;;2.88;;
53145;SDS011;39042;53.150;5.898;2023-07-31T05:07:31;11.57;;;2.90;;
53145;SDS011;39042;53.150;5.898;2023-07-31T05:09:57;18.52;;;3.42;;
53145;SDS011;39042;53.150;5.898;2023-07-31T05:12:23;16.13;;;3.58;;
53145;SDS011;39042;53.150;5.898;2023-07-31T05:14:49;15.25;;;3.33;;
53145;SDS011;39042;53.150;5.898;2023-07-31T05:17:15;13.32;;;3.42;;
53145;SDS011;39042;53.150;5.898;2023-07-31T05:19:41;10.57;;;3.90;;
53145;SDS011;39042;53.150;5.898;2023-07-31T05:22:07;13.60;;;3.80;;
53145;SDS011;39042;53.150;5.898;2023-07-31T05:24:33;16.20;;;4.18;;
53145;SDS011;39042;53.150;5.898;2023-07-31T05:26:58;14.13;;;4.35;;
53145;SDS011;39042;53.150;5.898;2023-07-31T05:29:24;16.20;;;4.57;;
53145;SDS011;39042;53.150;5.898;2023-07-31T05:31:50;16.02;;;4.97;;
53145;SDS011;39042;53.150;5.898;2023-07-31T05:34:16;18.90;;;5.03;;
53145;SDS011;39042;53.150;5.898;2023-07-31T05:36:42;20.05;;;5.95;;
53145;SDS011;39042;53.150;5.898;2023-07-31T05:39:08;24.40;;;6.70;;
53145;SDS011;39042;53.150;5.898;2023-07-31T05:41:34;23.50;;;6.57;;
53145;SDS011;39042;53.150;5.898;2023-07-31T05:44:00;17.52;;;5.78;;
53145;SDS011;39042;53.150;5.898;2023-07-31T05:46:26;15.82;;;4.90;;
53145;SDS011;39042;53.150;5.898;2023-07-31T05:48:52;16.55;;;5.10;;
53145;SDS011;39042;53.150;5.898;2023-07-31T05:51:18;21.50;;;4.43;;
53145;SDS011;39042;53.150;5.898;2023-07-31T05:53:44;17.00;;;4.30;;
53145;SDS011;39042;53.150;5.898;2023-07-31T05:56:10;17.73;;;4.00;;
53145;SDS011;39042;53.150;5.898;2023-07-31T05:58:35;21.45;;;4.38;;
53145;SDS011;39042;53.150;5.898;2023-07-31T06:01:01;18.00;;;4.55;;
53145;SDS011;39042;53.150;5.898;2023-07-31T06:03:27;14.23;;;3.72;;
53145;SDS011;39042;53.150;5.898;2023-07-31T06:05:53;14.95;;;4.05;;
53145;SDS011;39042;53.150;5.898;2023-07-31T06:08:19;13.95;;;3.80;;
53145;SDS011;39042;53.150;5.898;2023-07-31T06:10:45;17.48;;;4.53;;
53145;SDS011;39042;53.150;5.898;2023-07-31T06:13:10;13.18;;;4.35;;
53145;SDS011;39042;53.150;5.898;2023-07-31T06:15:36;15.35;;;4.70;;
53145;SDS011;39042;53.150;5.898;2023-07-31T06:18:02;20.67;;;5.07;;
53145;SDS011;39042;53.150;5.898;2023-07-31T06:20:29;21.75;;;5.18;;
53145;SDS011;39042;53.150;5.898;2023-07-31T06:22:55;17.13;;;5.28;;
53145;SDS011;39042;53.150;5.898;2023-07-31T06:25:21;17.17;;;5.28;;
53145;SDS011;39042;53.150;5.898;2023-07-31T06:27:47;22.50;;;4.63;;
53145;SDS011;39042;53.150;5.898;2023-07-31T06:30:13;15.40;;;4.97;;
53145;SDS011;39042;53.150;5.898;2023-07-31T06:32:38;18.50;;;4.85;;
53145;SDS011;39042;53.150;5.898;2023-07-31T06:35:06;16.75;;;4.38;;
53145;SDS011;39042;53.150;5.898;2023-07-31T06:37:32;16.85;;;3.80;;
53145;SDS011;39042;53.150;5.898;2023-07-31T06:39:58;11.55;;;3.35;;
53145;SDS011;39042;53.150;5.898;2023-07-31T06:42:23;10.20;;;3.60;;
53145;SDS011;39042;53.150;5.898;2023-07-31T06:44:49;11.98;;;2.72;;
53145;SDS011;39042;53.150;5.898;2023-07-31T06:47:15;12.43;;;3.53;;
53145;SDS011;39042;53.150;5.898;2023-07-31T06:49:41;9.18;;;2.90;;
53145;SDS011;39042;53.150;5.898;2023-07-31T06:52:07;12.18;;;2.42;;
53145;SDS011;39042;53.150;5.898;2023-07-31T06:54:33;7.32;;;2.40;;
53145;SDS011;39042;53.150;5.898;2023-07-31T06:56:59;9.75;;;2.17;;
53145;SDS011;39042;53.150;5.898;2023-07-31T06:59:24;10.50;;;2.72;;
53145;SDS011;39042;53.150;5.898;2023-07-31T07:01:50;8.77;;;2.00;;
53145;SDS011;39042;53.150;5.898;2023-07-31T07:04:16;8.15;;;2.28;;
53145;SDS011;39042;53.150;5.898;2023-07-31T07:06:42;5.43;;;2.05;;
53145;SDS011;39042;53.150;5.898;2023-07-31T07:09:08;6.88;;;2.67;;
53145;SDS011;39042;53.150;5.898;2023-07-31T07:11:34;4.55;;;0.90;;
53145;SDS011;39042;53.150;5.898;2023-07-31T07:13:59;3.78;;;0.68;;
53145;SDS011;39042;53.150;5.898;2023-07-31T07:16:28;2.20;;;0.70;;
53145;SDS011;39042;53.150;5.898;2023-07-31T07:18:54;2.90;;;0.60;;
53145;SDS011;39042;53.150;5.898;2023-07-31T07:21:20;2.63;;;0.65;;
53145;SDS011;39042;53.150;5.898;2023-07-31T07:23:46;3.30;;;0.90;;
53145;SDS011;39042;53.150;5.898;2023-07-31T07:26:12;3.72;;;0.80;;
53145;SDS011;39042;53.150;5.898;2023-07-31T07:28:37;4.47;;;0.80;;
53145;SDS011;39042;53.150;5.898;2023-07-31T07:31:03;2.33;;;0.68;;
53145;SDS011;39042;53.150;5.898;2023-07-31T07:33:29;1.65;;;0.55;;
53145;SDS011;39042;53.150;5.898;2023-07-31T07:35:55;2.28;;;0.70;;
53145;SDS011;39042;53.150;5.898;2023-07-31T07:38:24;1.88;;;0.60;;
53145;SDS011;39042;53.150;5.898;2023-07-31T07:40:50;2.55;;;0.75;;
53145;SDS011;39042;53.150;5.898;2023-07-31T07:43:18;2.90;;;0.80;;
53145;SDS011;39042;53.150;5.898;2023-07-31T07:45:44;1.98;;;0.65;;
53145;SDS011;39042;53.150;5.898;2023-07-31T07:48:10;1.42;;;0.40;;
53145;SDS011;39042;53.150;5.898;2023-07-31T07:53:03;1.35;;;0.30;;
53145;SDS011;39042;53.150;5.898;2023-07-31T07:55:29;0.52;;;0.20;;
53145;SDS011;39042;53.150;5.898;2023-07-31T07:57:55;0.60;;;0.10;;
53145;SDS011;39042;53.150;5.898;2023-07-31T08:00:21;0.32;;;0.10;;
53145;SDS011;39042;53.150;5.898;2023-07-31T08:02:47;0.60;;;0.10;;
53145;SDS011;39042;53.150;5.898;2023-07-31T08:05:12;0.65;;;0.10;;
53145;SDS011;39042;53.150;5.898;2023-07-31T08:07:38;0.20;;;0.00;;
53145;SDS011;39042;53.150;5.898;2023-07-31T08:10:04;0.63;;;0.00;;
53145;SDS011;39042;53.150;5.898;2023-07-31T08:12:30;1.30;;;0.10;;
53145;SDS011;39042;53.150;5.898;2023-07-31T08:14:56;0.22;;;0.03;;
53145;SDS011;39042;53.150;5.898;2023-07-31T08:17:22;0.32;;;0.10;;
53145;SDS011;39042;53.150;5.898;2023-07-31T08:19:48;0.20;;;0.10;;
53145;SDS011;39042;53.150;5.898;2023-07-31T08:22:14;0.63;;;0.00;;
53145;SDS011;39042;53.150;5.898;2023-07-31T08:24:40;0.63;;;0.15;;
53145;SDS011;39042;53.150;5.898;2023-07-31T08:27:06;1.38;;;0.15;;
53145;SDS011;39042;53.150;5.898;2023-07-31T08:29:32;0.70;;;0.10;;
53145;SDS011;39042;53.150;5.898;2023-07-31T08:31:57;0.20;;;0.03;;
53145;SDS011;39042;53.150;5.898;2023-07-31T08:34:23;1.45;;;0.10;;
53145;SDS011;39042;53.150;5.898;2023-07-31T08:36:50;1.75;;;0.15;;
53145;SDS011;39042;53.150;5.898;2023-07-31T08:39:15;1.48;;;0.30;;
53145;SDS011;39042;53.150;5.898;2023-07-31T08:41:41;2.97;;;0.35;;
53145;SDS011;39042;53.150;5.898;2023-07-31T08:44:07;1.98;;;0.43;;
53145;SDS011;39042;53.150;5.898;2023-07-31T08:46:33;5.22;;;0.55;;
53145;SDS011;39042;53.150;5.898;2023-07-31T08:49:00;0.75;;;0.25;;
53145;SDS011;39042;53.150;5.898;2023-07-31T08:51:31;0.98;;;0.10;;
53145;SDS011;39042;53.150;5.898;2023-07-31T08:53:59;1.90;;;0.10;;
53145;SDS011;39042;53.150;5.898;2023-07-31T08:56:25;1.25;;;0.10;;
53145;SDS011;39042;53.150;5.898;2023-07-31T08:58:52;1.17;;;0.10;;
53145;SDS011;39042;53.150;5.898;2023-07-31T09:01:19;0.80;;;0.10;;
53145;SDS011;39042;53.150;5.898;2023-07-31T09:03:45;1.63;;;0.22;;
53145;SDS011;39042;53.150;5.898;2023-07-31T09:06:12;3.15;;;0.60;;
53145;SDS011;39042;53.150;5.898;2023-07-31T09:08:41;1.40;;;0.13;;
53145;SDS011;39042;53.150;5.898;2023-07-31T09:11:08;0.70;;;0.13;;
53145;SDS011;39042;53.150;5.898;2023-07-31T09:13:34;0.40;;;0.00;;
53145;SDS011;39042;53.150;5.898;2023-07-31T09:15:59;0.73;;;0.13;;
53145;SDS011;39042;53.150;5.898;2023-07-31T09:18:25;0.50;;;0.10;;
53145;SDS011;39042;53.150;5.898;2023-07-31T09:21:01;0.20;;;0.00;;
53145;SDS011;39042;53.150;5.898;2023-07-31T09:23:39;0.75;;;0.00;;
53145;SDS011;39042;53.150;5.898;2023-07-31T09:26:10;0.60;;;0.00;;
53145;SDS011;39042;53.150;5.898;2023-07-31T09:28:36;1.00;;;0.08;;
53145;SDS011;39042;53.150;5.898;2023-07-31T09:31:02;4.80;;;0.10;;
53145;SDS011;39042;53.150;5.898;2023-07-31T09:33:27;1.73;;;0.10;;
53145;SDS011;39042;53.150;5.898;2023-07-31T09:35:53;0.47;;;0.10;;
53145;SDS011;39042;53.150;5.898;2023-07-31T09:38:19;2.97;;;0.20;;
53145;SDS011;39042;53.150;5.898;2023-07-31T09:40:46;1.25;;;0.15;;
53145;SDS011;39042;53.150;5.898;2023-07-31T09:43:17;1.00;;;0.13;;
53145;SDS011;39042;53.150;5.898;2023-07-31T09:45:44;1.95;;;0.20;;
53145;SDS011;39042;53.150;5.898;2023-07-31T09:48:12;1.02;;;0.10;;
53145;SDS011;39042;53.150;5.898;2023-07-31T09:50:39;2.10;;;0.25;;
53145;SDS011;39042;53.150;5.898;2023-07-31T09:53:07;0.50;;;0.10;;
53145;SDS011;39042;53.150;5.898;2023-07-31T09:55:34;1.77;;;0.20;;
53145;SDS011;39042;53.150;5.898;2023-07-31T09:58:04;0.75;;;0.20;;
53145;SDS011;39042;53.150;5.898;2023-07-31T10:00:35;2.88;;;0.80;;
53145;SDS011;39042;53.150;5.898;2023-07-31T10:03:02;0.93;;;0.22;;
53145;SDS011;39042;53.150;5.898;2023-07-31T10:05:31;0.85;;;0.60;;
53145;SDS011;39042;53.150;5.898;2023-07-31T10:08:01;1.35;;;0.30;;
53145;SDS011;39042;53.150;5.898;2023-07-31T10:12:53;2.13;;;0.40;;
53145;SDS011;39042;53.150;5.898;2023-07-31T10:15:21;0.77;;;0.30;;
53145;SDS011;39042;53.150;5.898;2023-07-31T10:17:47;2.33;;;0.40;;
53145;SDS011;39042;53.150;5.898;2023-07-31T10:20:14;1.67;;;0.30;;
53145;SDS011;39042;53.150;5.898;2023-07-31T10:22:44;1.90;;;0.20;;
53145;SDS011;39042;53.150;5.898;2023-07-31T10:25:13;1.23;;;0.20;;
53145;SDS011;39042;53.150;5.898;2023-07-31T10:27:40;2.78;;;0.40;;
53145;SDS011;39042;53.150;5.898;2023-07-31T10:30:11;3.72;;;0.30;;
53145;SDS011;39042;53.150;5.898;2023-07-31T10:32:40;2.55;;;0.45;;
53145;SDS011;39042;53.150;5.898;2023-07-31T10:35:08;2.50;;;0.43;;
53145;SDS011;39042;53.150;5.898;2023-07-31T10:37:41;4.32;;;0.60;;
53145;SDS011;39042;53.150;5.898;2023-07-31T10:42:45;1.58;;;0.40;;
53145;SDS011;39042;53.150;5.898;2023-07-31T10:45:14;1.20;;;0.20;;
53145;SDS011;39042;53.150;5.898;2023-07-31T10:48:02;1.40;;;0.20;;
53145;SDS011;39042;53.150;5.898;2023-07-31T10:50:37;0.75;;;0.17;;
53145;SDS011;39042;53.150;5.898;2023-07-31T10:53:10;2.17;;;0.30;;
53145;SDS011;39042;53.150;5.898;2023-07-31T10:56:04;1.55;;;0.20;;
53145;SDS011;39042;53.150;5.898;2023-07-31T10:58:35;0.57;;;0.10;;
53145;SDS011;39042;53.150;5.898;2023-07-31T11:01:02;1.48;;;0.20;;
53145;SDS011;39042;53.150;5.898;2023-07-31T11:06:08;1.02;;;0.40;;
53145;SDS011;39042;53.150;5.898;2023-07-31T11:08:35;2.78;;;0.40;;
53145;SDS011;39042;53.150;5.898;2023-07-31T11:11:08;2.05;;;0.40;;
53145;SDS011;39042;53.150;5.898;2023-07-31T11:13:39;2.95;;;0.50;;
53145;SDS011;39042;53.150;5.898;2023-07-31T11:16:11;1.88;;;0.32;;
53145;SDS011;39042;53.150;5.898;2023-07-31T11:18:38;2.40;;;0.50;;
53145;SDS011;39042;53.150;5.898;2023-07-31T11:21:06;3.13;;;0.40;;
53145;SDS011;39042;53.150;5.898;2023-07-31T11:23:32;2.10;;;0.40;;
53145;SDS011;39042;53.150;5.898;2023-07-31T11:25:59;2.33;;;0.70;;
53145;SDS011;39042;53.150;5.898;2023-07-31T11:28:25;3.90;;;0.68;;
53145;SDS011;39042;53.150;5.898;2023-07-31T11:30:51;2.97;;;0.60;;
53145;SDS011;39042;53.150;5.898;2023-07-31T11:33:17;2.90;;;0.80;;
53145;SDS011;39042;53.150;5.898;2023-07-31T11:35:44;3.38;;;0.68;;
53145;SDS011;39042;53.150;5.898;2023-07-31T11:38:25;3.20;;;0.45;;
53145;SDS011;39042;53.150;5.898;2023-07-31T11:40:56;2.58;;;0.52;;
53145;SDS011;39042;53.150;5.898;2023-07-31T11:43:25;3.47;;;0.40;;
53145;SDS011;39042;53.150;5.898;2023-07-31T11:45:52;4.97;;;0.80;;
53145;SDS011;39042;53.150;5.898;2023-07-31T11:48:29;3.03;;;0.50;;
53145;SDS011;39042;53.150;5.898;2023-07-31T11:50:59;3.43;;;0.40;;
53145;SDS011;39042;53.150;5.898;2023-07-31T11:53:36;2.90;;;0.82;;
53145;SDS011;39042;53.150;5.898;2023-07-31T11:56:04;3.85;;;0.95;;
53145;SDS011;39042;53.150;5.898;2023-07-31T11:58:32;1.45;;;0.55;;
53145;SDS011;39042;53.150;5.898;2023-07-31T12:01:00;5.55;;;0.85;;
53145;SDS011;39042;53.150;5.898;2023-07-31T12:03:27;5.03;;;1.02;;
53145;SDS011;39042;53.150;5.898;2023-07-31T12:05:53;6.75;;;1.20;;
53145;SDS011;39042;53.150;5.898;2023-07-31T12:10:52;8.63;;;1.20;;
53145;SDS011;39042;53.150;5.898;2023-07-31T12:13:22;5.82;;;0.90;;
53145;SDS011;39042;53.150;5.898;2023-07-31T12:15:53;8.60;;;2.05;;
53145;SDS011;39042;53.150;5.898;2023-07-31T12:18:21;4.15;;;1.63;;
53145;SDS011;39042;53.150;5.898;2023-07-31T12:20:48;5.75;;;1.30;;
53145;SDS011;39042;53.150;5.898;2023-07-31T12:23:20;5.78;;;1.02;;
53145;SDS011;39042;53.150;5.898;2023-07-31T12:26:33;7.57;;;1.27;;
53145;SDS011;39042;53.150;5.898;2023-07-31T12:28:46;5.75;;;1.15;;
53145;SDS011;39042;53.150;5.898;2023-07-31T12:31:19;6.80;;;1.30;;
53145;SDS011;39042;53.150;5.898;2023-07-31T12:33:47;4.25;;;1.02;;
53145;SDS011;39042;53.150;5.898;2023-07-31T12:36:16;7.82;;;1.20;;
53145;SDS011;39042;53.150;5.898;2023-07-31T12:38:44;5.97;;;1.30;;
53145;SDS011;39042;53.150;5.898;2023-07-31T12:41:10;5.15;;;0.98;;
53145;SDS011;39042;53.150;5.898;2023-07-31T12:43:37;5.38;;;1.25;;
53145;SDS011;39042;53.150;5.898;2023-07-31T12:46:05;8.32;;;1.55;;
53145;SDS011;39042;53.150;5.898;2023-07-31T12:48:33;7.35;;;1.60;;
53145;SDS011;39042;53.150;5.898;2023-07-31T12:51:00;8.93;;;1.58;;
53145;SDS011;39042;53.150;5.898;2023-07-31T13:08:47;6.43;;;1.52;;
53145;SDS011;39042;53.150;5.898;2023-07-31T13:11:35;6.15;;;1.42;;
53145;SDS011;39042;53.150;5.898;2023-07-31T13:14:10;8.27;;;1.70;;
53145;SDS011;39042;53.150;5.898;2023-07-31T13:16:46;6.80;;;1.50;;
53145;SDS011;39042;53.150;5.898;2023-07-31T13:19:27;6.30;;;1.40;;
53145;SDS011;39042;53.150;5.898;2023-07-31T13:22:19;5.55;;;1.17;;
53145;SDS011;39042;53.150;5.898;2023-07-31T13:24:50;5.25;;;1.35;;
53145;SDS011;39042;53.150;5.898;2023-07-31T13:27:41;3.85;;;1.30;;
53145;SDS011;39042;53.150;5.898;2023-07-31T13:30:12;9.85;;;1.98;;
53145;SDS011;39042;53.150;5.898;2023-07-31T13:32:40;5.80;;;1.65;;
53145;SDS011;39042;53.150;5.898;2023-07-31T13:35:41;4.38;;;1.42;;
53145;SDS011;39042;53.150;5.898;2023-07-31T13:38:18;7.25;;;1.92;;
53145;SDS011;39042;53.150;5.898;2023-07-31T13:41:06;6.90;;;2.25;;
53145;SDS011;39042;53.150;5.898;2023-07-31T13:43:39;7.03;;;1.73;;
53145;SDS011;39042;53.150;5.898;2023-07-31T13:46:19;8.60;;;1.95;;
53145;SDS011;39042;53.150;5.898;2023-07-31T13:49:07;8.75;;;1.92;;
53145;SDS011;39042;53.150;5.898;2023-07-31T13:51:42;7.10;;;2.00;;
53145;SDS011;39042;53.150;5.898;2023-07-31T13:54:15;7.05;;;2.25;;
53145;SDS011;39042;53.150;5.898;2023-07-31T13:56:48;7.55;;;2.20;;
53145;SDS011;39042;53.150;5.898;2023-07-31T13:59:14;6.85;;;2.55;;
53145;SDS011;39042;53.150;5.898;2023-07-31T14:01:42;6.88;;;2.80;;
53145;SDS011;39042;53.150;5.898;2023-07-31T14:04:08;8.85;;;2.58;;
53145;SDS011;39042;53.150;5.898;2023-07-31T14:06:34;9.70;;;2.50;;
53145;SDS011;39042;53.150;5.898;2023-07-31T14:09:00;4.97;;;2.40;;
53145;SDS011;39042;53.150;5.898;2023-07-31T14:11:26;7.53;;;2.08;;
53145;SDS011;39042;53.150;5.898;2023-07-31T14:13:52;7.90;;;2.25;;
53145;SDS011;39042;53.150;5.898;2023-07-31T14:16:18;7.15;;;2.15;;
53145;SDS011;39042;53.150;5.898;2023-07-31T14:18:44;6.78;;;1.95;;
53145;SDS011;39042;53.150;5.898;2023-07-31T14:21:12;6.70;;;2.20;;
53145;SDS011;39042;53.150;5.898;2023-07-31T14:23:38;7.35;;;2.45;;
53145;SDS011;39042;53.150;5.898;2023-07-31T14:26:05;8.55;;;2.30;;
53145;SDS011;39042;53.150;5.898;2023-07-31T14:28:31;8.93;;;2.25;;
53145;SDS011;39042;53.150;5.898;2023-07-31T14:30:56;8.38;;;2.50;;
53145;SDS011;39042;53.150;5.898;2023-07-31T14:33:23;7.93;;;1.83;;
53145;SDS011;39042;53.150;5.898;2023-07-31T14:35:48;10.68;;;2.70;;
53145;SDS011;39042;53.150;5.898;2023-07-31T14:38:14;9.13;;;2.28;;
53145;SDS011;39042;53.150;5.898;2023-07-31T14:40:41;7.18;;;1.85;;
53145;SDS011;39042;53.150;5.898;2023-07-31T14:43:07;8.98;;;2.45;;
53145;SDS011;39042;53.150;5.898;2023-07-31T14:45:33;7.90;;;1.90;;
53145;SDS011;39042;53.150;5.898;2023-07-31T14:47:59;8.77;;;1.92;;
53145;SDS011;39042;53.150;5.898;2023-07-31T14:50:24;8.93;;;1.75;;
53145;SDS011;39042;53.150;5.898;2023-07-31T14:52:50;10.30;;;2.13;;
53145;SDS011;39042;53.150;5.898;2023-07-31T14:55:16;5.53;;;2.08;;
53145;SDS011;39042;53.150;5.898;2023-07-31T14:57:43;7.38;;;1.50;;
53145;SDS011;39042;53.150;5.898;2023-07-31T15:00:09;11.00;;;1.40;;
53145;SDS011;39042;53.150;5.898;2023-07-31T15:02:36;8.82;;;1.60;;
53145;SDS011;39042;53.150;5.898;2023-07-31T15:05:05;7.70;;;1.77;;
53145;SDS011;39042;53.150;5.898;2023-07-31T15:07:32;8.63;;;2.00;;
53145;SDS011;39042;53.150;5.898;2023-07-31T15:09:58;7.18;;;2.08;;
53145;SDS011;39042;53.150;5.898;2023-07-31T15:12:25;7.53;;;1.83;;
53145;SDS011;39042;53.150;5.898;2023-07-31T15:14:51;8.82;;;1.42;;
53145;SDS011;39042;53.150;5.898;2023-07-31T15:17:17;7.40;;;2.30;;
53145;SDS011;39042;53.150;5.898;2023-07-31T15:19:43;6.90;;;1.45;;
53145;SDS011;39042;53.150;5.898;2023-07-31T15:22:09;7.90;;;1.52;;
53145;SDS011;39042;53.150;5.898;2023-07-31T15:24:35;6.05;;;1.52;;
53145;SDS011;39042;53.150;5.898;2023-07-31T15:27:01;6.93;;;1.73;;